firenzetoday.it alexa rank chart, firenzetoday.it alexa rank daily changes

firenzetoday.it alexa rank chart, firenzetoday.it alexa rank daily changes

firenzetoday.it
Actual rank:
128 712

RANK HISTORY

Date Rank Diff
2017/05/01 128 712 -4 826
2017/04/30 133 538 -1 272
2017/04/29 134 810 +610
2017/04/28 134 200 +5 957
2017/04/27 128 243 +3 142
2017/04/26 125 101 -1 021
2017/04/25 126 122 -920
2017/04/24 127 042 -891
2017/04/23 127 933 -1 451
2017/04/22 129 384 -1 596
2017/04/21 130 980 +3 948
2017/04/20 127 032 +4 318
2017/04/19 122 714 +1 612
2017/04/18 121 102 +535
2017/04/17 120 567 +608
2017/04/16 119 959 -1 244
2017/04/15 121 203 -1 829
2017/04/14 123 032 +2 890
2017/04/13 120 142 -380
2017/04/12 120 522 +2 166
2017/04/11 118 356 +874
2017/04/10 117 482 -2 822
2017/04/09 120 304 -215
2017/04/08 120 519 -169
2017/04/07 120 688 +412
2017/04/06 120 276 +838
2017/04/05 119 438 +276
2017/04/04 119 162 -239
2017/04/03 119 401 -3 322
2017/04/02 122 723 -131
2017/04/01 122 854 +569
2017/03/31 122 285 +2 076
2017/03/30 120 209 +1 786
2017/03/29 118 423 -680
2017/03/28 119 103 -1 293
2017/03/27 120 396 -2 417
2017/03/26 122 813 +1 554
2017/03/25 121 259 +2 238
2017/03/24 119 021 -549
2017/03/23 119 570 +979
2017/03/22 118 591 -677
2017/03/21 119 268 -4 414
2017/03/20 123 682 -3 516
2017/03/19 127 198 -3 032
2017/03/18 130 230 +457
2017/03/17 129 773 -382
2017/03/16 130 155 +426
2017/03/15 129 729 +359
2017/03/14 129 370 -2 065
2017/03/13 131 435 -1 959
2017/03/12 133 394 -4 068
2017/03/11 137 462 -351
2017/03/10 137 813 -1 414
2017/03/09 139 227 -2 190
2017/03/08 141 417 -2 743
2017/03/07 144 160 +1 980
2017/03/06 142 180

WIDGET FOR YOUR SITE

DOMAINS WITH THE NEAREST RANK

Domain Rank
tryitnow.com 128 707
carstory.com 128 708
controllerchaos.com 128 709
abvent.com 128 710
nwjs.io 128 711
firenzetoday.it 128 712
intel.com.tw 128 713
girlsgames123.com 128 714
olomtec.blogspot.com 128 715
etudionsaletranger.fr 128 716
vat.pl 128 717

DOMAINS WITH THE NEAREST RANK BY TLD .it

Domain Rank
tempoitalia.it 128 232
gnamgnam.it 128 347
avmspa.it 128 436
livecareer.it 128 526
laprovinciadisondrio.it 128 580
firenzetoday.it 128 712
super-prezzi.it 128 735
controcampus.it 128 833
meridionews.it 128 959
ridewill.it 129 082
intoscana.it 129 150